Airfield :







YOU CAN JOIN US ON...

 
LOGIN :

Register | Disclaimer

   EN    FR    IT 

 









Legend :    VFR   Marginal VFR   IFR   Intensive IFR   Very Intensive IFR
Visi :
Ceiling :
>= 8 km
>= 3000ft
5 to 8 km
1000 to 3000 ft
1500m to 5 km
500 to 1000 ft
800 to 1500m
200 to 500 ft
< 800m
< 200 ft
Symbols :   Thunderstorms  Fog  Heavy snow  Heavy precipitations  Wind > 20 kt






- Airport Elevation : 270 ft
- IATA code : YMX


CYMX - Montreal International Mirabel

CURRENT METAR :
  • 301600Z 32007KT 240V350 45SM BKN031 16/09 A2981 RMK SC5 SLP097 DENSITY ALT 600FT

EXPIRED METARs :
  • 301500Z 29007KT 250V360 30SM BKN034 BKN100 17/11 A2980 RMK CU5AC1 SLP092 DENSITY ALT 800FT
  • 301400Z 31007KT 280V350 30SM SCT030 BKN097 15/10 A2979 RMK SC3AC3 SLP091 DENSITY ALT 600FT

TAF TAF CYMX
Valid from the 30 at 12:00 until the 31 at 12:00 UTC


301141Z 3012/3112 34007KT P6SM BKN090
TEMPO 3012/3015 BKN020
BECMG 3012/3014 31010G20KT
FM301500 31010G20KT P6SM BKN040
BECMG 3018/3020 31015G25KT
FM310000 31010KT P6SM FEW050
BECMG 3100/3102 31005KT RMK NXT FCST BY 301800Z
CZUL FIR / North America



MET'MAP, your aeronautical weather chart ! - Copyright ORBIFLY December 2007 - Disclaimer

ORBIFLY MET'MAP TEAM :

Programming & Development : Alexandra Zaïnal
Concept & original design : Baudouin d'Aumeries
Assistance for programming : Marc-Olivier Méhu
Technical & hardware support : Manuel Goepfert

Contact : metmap@orbifly.com




SOURCES & CREDITS :

   NOAA